createdAt,value
2023-04-02T00:02:33.841Z,2.19
2023-04-02T00:07:41.540Z,2.13
2023-04-02T00:13:21.911Z,2.02
2023-04-02T00:18:26.403Z,1.85
2023-04-02T00:23:29.304Z,1.73
2023-04-02T00:28:32.086Z,1.71
2023-04-02T00:33:35.472Z,1.75
2023-04-02T00:38:43.739Z,1.78
2023-04-02T00:43:50.765Z,1.72
2023-04-02T00:49:10.708Z,1.64
2023-04-02T00:54:15.941Z,1.65
2023-04-02T00:59:54.689Z,1.63
2023-04-02T01:05:03.576Z,1.63
2023-04-02T01:10:12.559Z,1.65
2023-04-02T01:15:25.619Z,1.64
2023-04-02T01:20:54.101Z,1.63
2023-04-02T01:25:59.962Z,1.64
2023-04-02T01:31:03.914Z,1.67
2023-04-02T01:36:35.162Z,1.71
2023-04-02T01:41:53.124Z,1.75
2023-04-02T01:46:58.888Z,1.81
2023-04-02T01:52:01.871Z,1.83
2023-04-02T01:57:05.491Z,1.83
2023-04-02T02:02:13.521Z,1.85
2023-04-02T02:07:20.605Z,1.86
2023-04-02T02:12:23.448Z,1.92
2023-04-02T02:17:34.567Z,1.94
2023-04-02T02:22:39.656Z,1.95
2023-04-02T02:27:46.038Z,1.93
2023-04-02T02:33:26.222Z,1.88
2023-04-02T02:38:36.358Z,1.87
2023-04-02T02:43:42.126Z,1.88
2023-04-02T02:48:46.943Z,1.86
2023-04-02T02:53:54.127Z,1.84
2023-04-02T02:58:57.077Z,1.82
2023-04-02T03:04:00.862Z,1.79
2023-04-02T03:09:13.479Z,1.76
2023-04-02T03:14:49.255Z,1.74
2023-04-02T03:20:06.553Z,1.71
2023-04-02T03:25:32.154Z,1.70
2023-04-02T03:30:47.157Z,1.66
2023-04-02T03:35:58.224Z,1.63
2023-04-02T03:41:06.658Z,1.61
2023-04-02T03:46:24.834Z,1.57
2023-04-02T03:51:32.566Z,1.48
2023-04-02T03:56:40.482Z,1.41
2023-04-02T04:02:06.353Z,1.39
2023-04-02T04:07:31.182Z,1.29
2023-04-02T04:12:37.015Z,1.20
2023-04-02T04:18:03.409Z,1.14
2023-04-02T04:23:15.992Z,1.14
2023-04-02T04:28:44.152Z,1.16
2023-04-02T04:33:54.903Z,1.19
2023-04-02T04:39:05.711Z,1.24
2023-04-02T04:44:19.112Z,1.26
2023-04-02T04:49:43.447Z,1.28
2023-04-02T04:54:47.142Z,1.30
2023-04-02T05:00:07.376Z,1.33
2023-04-02T05:05:25.284Z,1.39
2023-04-02T05:10:45.186Z,1.43
2023-04-02T05:16:11.338Z,1.47
2023-04-02T05:21:21.779Z,1.53
2023-04-02T05:26:31.010Z,1.58
2023-04-02T05:31:56.061Z,1.62
2023-04-02T05:36:59.151Z,1.64
2023-04-02T05:42:08.412Z,1.66
2023-04-02T05:47:21.275Z,1.70
2023-04-02T05:52:30.229Z,1.74
2023-04-02T05:57:46.915Z,1.76
2023-04-02T06:03:01.074Z,1.81
2023-04-02T06:08:11.261Z,1.83
2023-04-02T06:13:18.724Z,1.86
2023-04-02T06:18:27.780Z,1.85
2023-04-02T06:24:05.558Z,1.84
2023-04-02T06:29:24.202Z,1.83
2023-04-02T06:34:29.859Z,1.84
2023-04-02T06:39:32.642Z,1.86
2023-04-02T06:44:37.650Z,1.91
2023-04-02T06:49:47.168Z,1.94
2023-04-02T06:54:50.084Z,1.96
2023-04-02T06:59:53.329Z,1.97
2023-04-02T07:05:04.659Z,1.98
2023-04-02T07:10:09.368Z,1.99
2023-04-02T07:15:19.939Z,2.00
2023-04-02T07:20:34.006Z,2.02
2023-04-02T07:25:37.064Z,2.07
2023-04-02T07:30:41.979Z,2.09
2023-04-02T07:35:46.252Z,2.15
2023-04-02T07:40:49.408Z,2.16
2023-04-02T07:45:52.257Z,2.20
2023-04-02T07:50:55.086Z,2.24
2023-04-02T07:56:01.548Z,2.30
2023-04-02T08:01:05.462Z,2.37
2023-04-02T08:06:08.569Z,2.47
2023-04-02T08:11:11.881Z,2.56
2023-04-02T08:16:14.845Z,2.62
2023-04-02T08:21:17.844Z,2.70
2023-04-02T08:26:21.182Z,2.74
2023-04-02T08:31:24.569Z,2.77
2023-04-02T08:36:31.110Z,2.83
2023-04-02T08:41:44.376Z,2.92
2023-04-02T08:47:14.504Z,2.96
2023-04-02T08:52:24.116Z,3.02
2023-04-02T08:57:36.870Z,2.98
2023-04-02T09:02:44.555Z,2.94
2023-04-02T09:07:50.861Z,2.93
2023-04-02T09:12:53.805Z,2.91
2023-04-02T09:18:17.738Z,2.89
2023-04-02T09:23:23.882Z,2.93
2023-04-02T09:28:27.719Z,3.01
2023-04-02T09:33:51.620Z,3.08
2023-04-02T09:39:06.874Z,3.14
2023-04-02T09:44:23.755Z,3.18
2023-04-02T09:49:28.737Z,3.19
2023-04-02T09:54:33.684Z,3.23
2023-04-02T09:59:37.568Z,3.26
2023-04-02T10:04:47.982Z,3.38
2023-04-02T10:10:01.990Z,3.46
2023-04-02T10:15:06.851Z,3.52
2023-04-02T10:20:23.046Z,3.65
2023-04-02T10:25:32.439Z,3.76
2023-04-02T10:30:58.428Z,3.96
2023-04-02T10:36:16.400Z,4.32
2023-04-02T10:41:40.063Z,4.64
2023-04-02T10:47:00.767Z,5.01
2023-04-02T10:52:32.169Z,5.21
2023-04-02T10:57:39.659Z,5.37
2023-04-02T11:03:02.852Z,5.47
2023-04-02T11:08:29.709Z,5.61
2023-04-02T11:13:42.389Z,5.65
2023-04-02T11:19:19.918Z,5.75
2023-04-02T11:24:43.767Z,5.85
2023-04-02T11:29:53.682Z,5.92
2023-04-02T11:35:06.639Z,6.01
2023-04-02T11:40:13.999Z,5.99
2023-04-02T11:45:28.795Z,5.94
2023-04-02T11:50:34.538Z,5.99
2023-04-02T11:55:40.668Z,5.98
2023-04-02T12:01:05.393Z,5.98
2023-04-02T12:06:14.424Z,5.98
2023-04-02T12:11:35.161Z,6.00
2023-04-02T12:16:38.343Z,5.94
2023-04-02T12:21:47.958Z,6.02
2023-04-02T12:27:16.866Z,6.15
2023-04-02T12:32:31.198Z,6.09
2023-04-02T12:37:34.244Z,6.09
2023-04-02T12:42:39.271Z,6.25
2023-04-02T12:47:45.458Z,6.42
2023-04-02T12:52:51.942Z,6.55
2023-04-02T12:57:59.261Z,6.64
2023-04-02T13:03:16.979Z,6.61
2023-04-02T13:08:27.425Z,6.56
2023-04-02T13:13:39.446Z,6.45
2023-04-02T13:18:47.695Z,6.23
2023-04-02T13:23:51.058Z,6.18
2023-04-02T13:29:01.552Z,6.16
2023-04-02T13:34:04.396Z,6.16
2023-04-02T13:39:07.512Z,6.18
2023-04-02T13:44:19.561Z,6.21
2023-04-02T13:49:24.265Z,6.23
2023-04-02T13:54:48.951Z,6.29
2023-04-02T13:59:55.205Z,6.44
2023-04-02T14:05:13.535Z,6.51
2023-04-02T14:10:30.208Z,6.46
2023-04-02T14:16:24.940Z,6.38
2023-04-02T14:21:55.107Z,6.29
2023-04-02T14:27:23.790Z,6.21
2023-04-02T14:32:50.679Z,6.18
2023-04-02T14:38:21.098Z,6.16
2023-04-02T14:43:33.034Z,6.11
2023-04-02T14:48:59.202Z,6.09
2023-04-02T14:54:09.572Z,6.07
2023-04-02T14:59:22.022Z,6.06
2023-04-02T15:04:37.357Z,6.08
2023-04-02T15:09:49.203Z,6.11
2023-04-02T15:15:39.965Z,6.16
2023-04-02T15:20:54.182Z,6.26
2023-04-02T15:26:05.980Z,6.34
2023-04-02T15:31:13.602Z,6.36
2023-04-02T15:36:22.324Z,6.36
2023-04-02T15:41:38.170Z,6.31
2023-04-02T15:46:49.301Z,6.27
2023-04-02T15:52:16.533Z,6.20
2023-04-02T15:57:47.200Z,6.06
2023-04-02T16:03:29.525Z,5.91
2023-04-02T16:08:44.263Z,5.77
2023-04-02T16:13:47.601Z,5.62
2023-04-02T16:19:16.150Z,5.58
2023-04-02T16:24:20.011Z,5.70
2023-04-02T16:29:25.525Z,5.61
2023-04-02T16:34:37.123Z,5.47
2023-04-02T16:40:18.512Z,5.35
2023-04-02T16:45:50.000Z,5.22
2023-04-02T16:51:24.291Z,5.09
2023-04-02T16:56:40.775Z,4.94
2023-04-02T17:02:02.344Z,4.80
2023-04-02T17:07:38.098Z,4.68
2023-04-02T17:12:53.043Z,4.54
2023-04-02T17:18:00.646Z,4.39
2023-04-02T17:23:05.692Z,4.27
2023-04-02T17:28:18.747Z,4.15
2023-04-02T17:33:25.105Z,4.03
2023-04-02T17:39:06.951Z,3.86
2023-04-02T17:44:32.568Z,3.65
2023-04-02T17:49:56.824Z,3.50
2023-04-02T17:55:32.333Z,3.36
2023-04-02T18:00:47.403Z,3.25
2023-04-02T18:06:08.923Z,3.15
2023-04-02T18:11:30.949Z,3.04
2023-04-02T18:16:34.037Z,2.94
2023-04-02T18:22:02.966Z,2.86
2023-04-02T18:27:32.380Z,2.79
2023-04-02T18:32:59.570Z,2.68
2023-04-02T18:38:33.076Z,2.57
2023-04-02T18:44:07.692Z,2.48
2023-04-02T18:49:19.852Z,2.41
2023-04-02T18:54:30.064Z,2.32
2023-04-02T18:59:42.610Z,2.23
2023-04-02T19:04:53.237Z,2.16
2023-04-02T19:10:07.447Z,2.09
2023-04-02T19:15:18.967Z,2.01
2023-04-02T19:20:36.696Z,1.94
2023-04-02T19:25:42.728Z,1.87
2023-04-02T19:31:11.854Z,1.81
2023-04-02T19:36:45.467Z,1.75
2023-04-02T19:42:03.366Z,1.69
2023-04-02T19:47:06.191Z,1.62
2023-04-02T19:52:08.984Z,1.57
2023-04-02T19:57:16.569Z,1.53
2023-04-02T20:02:19.345Z,1.47
2023-04-02T20:07:22.390Z,1.41
2023-04-02T20:12:25.809Z,1.35
2023-04-02T20:17:29.437Z,1.31
2023-04-02T20:22:32.265Z,1.27
2023-04-02T20:27:35.524Z,1.22
2023-04-02T20:32:38.457Z,1.18
2023-04-02T20:37:42.414Z,1.16
2023-04-02T20:42:45.416Z,1.11
2023-04-02T20:47:48.273Z,1.06
2023-04-02T20:52:51.910Z,1.03
2023-04-02T20:57:55.040Z,0.98
2023-04-02T21:03:01.441Z,0.93
2023-04-02T21:08:04.621Z,0.89
2023-04-02T21:13:07.650Z,0.87
2023-04-02T21:18:10.472Z,0.85
2023-04-02T21:23:15.495Z,0.81
2023-04-02T21:28:18.288Z,0.80
2023-04-02T21:33:21.107Z,0.80
2023-04-02T21:38:23.980Z,0.77
2023-04-02T21:43:26.786Z,0.71
2023-04-02T21:48:30.328Z,0.70
2023-04-02T21:53:33.646Z,0.67
2023-04-02T21:58:36.479Z,0.61
2023-04-02T22:03:39.888Z,0.56
2023-04-02T22:08:44.222Z,0.53
2023-04-02T22:13:48.730Z,0.48
2023-04-02T22:18:53.223Z,0.42
2023-04-02T22:23:56.550Z,0.38
2023-04-02T22:29:00.644Z,0.36
2023-04-02T22:34:05.586Z,0.31
2023-04-02T22:39:10.534Z,0.26
2023-04-02T22:44:16.495Z,0.25
2023-04-02T22:49:19.637Z,0.21
2023-04-02T22:54:22.554Z,0.19
2023-04-02T22:59:25.748Z,0.16
2023-04-02T23:04:28.474Z,0.12
2023-04-02T23:09:31.430Z,0.09
2023-04-02T23:14:34.184Z,0.06
2023-04-02T23:19:37.004Z,0.05
2023-04-02T23:24:39.729Z,0.01
2023-04-02T23:29:42.485Z,-0.03
2023-04-02T23:34:45.358Z,-0.07
2023-04-02T23:39:48.141Z,-0.11
2023-04-02T23:44:50.979Z,-0.13
2023-04-02T23:49:53.955Z,-0.14
2023-04-02T23:54:56.715Z,-0.17
2023-04-02T23:59:59.889Z,-0.21
